Time;durP1;ratioP1;P1;durP2;ratioP2;P2;SDS_P1;SDS_P2;PMS_P1;PMS_P2;Temp;Humidity;BMP_temperature;BMP_pressure;BME280_temperature;BME280_humidity;BME280_pressure;Samples;Min_cycle;Max_cycle;Signal;HPM_P1;HPM_P2
2023/11/24 00:00:09;;;;;;;4.80;2.53;;;;;;;-141.23;100.00;62281.09;5100139;27;20062;-75
2023/11/24 00:02:39;;;;;;;1.10;1.07;;;;;;;-141.23;100.00;62281.09;5085505;27;20124;-76
2023/11/24 00:05:07;;;;;;;10.53;3.27;;;;;;;-141.23;100.00;62281.09;5117159;27;20077;-76
2023/11/24 00:07:35;;;;;;;3.83;2.47;;;;;;;-141.23;100.00;62281.09;5100090;27;20371;-76
2023/11/24 00:10:01;;;;;;;5.40;2.27;;;;;;;-141.23;100.00;62281.09;5097179;27;20104;-76
2023/11/24 00:12:31;;;;;;;1.47;1.37;;;;;;;-141.23;100.00;62281.09;5100203;27;20078;-76
2023/11/24 00:14:57;;;;;;;1.20;1.10;;;;;;;-141.23;100.00;62281.09;5059367;28;20044;-76
2023/11/24 00:17:23;;;;;;;1.40;1.30;;;;;;;-141.23;100.00;62281.09;5055485;28;20514;-75
2023/11/24 00:19:49;;;;;;;3.10;2.33;;;;;;;-141.23;100.00;62281.09;5042758;28;20112;-76
2023/11/24 00:22:17;;;;;;;1.33;1.17;;;;;;;-141.23;100.00;62281.09;5076459;28;20040;-75
2023/11/24 00:24:43;;;;;;;1.30;1.20;;;;;;;-141.23;100.00;62281.09;5042878;28;20048;-75
2023/11/24 00:27:09;;;;;;;2.10;1.90;;;;;;;-141.23;100.00;62281.09;5061245;28;20047;-75
2023/11/24 00:29:35;;;;;;;1.30;1.20;;;;;;;-141.23;100.00;62281.09;5079436;28;20048;-76
2023/11/24 00:32:04;;;;;;;1.10;1.10;;;;;;;-141.23;100.00;62281.09;5062865;28;20475;-76
2023/11/24 00:34:30;;;;;;;2.30;2.07;;;;;;;-141.23;100.00;62281.09;5063104;28;20106;-77
2023/11/24 00:36:58;;;;;;;0.90;0.90;;;;;;;-141.23;100.00;62281.09;5075607;28;20071;-74
2023/11/24 00:39:24;;;;;;;1.10;1.00;;;;;;;-141.23;100.00;62281.09;5042508;28;20056;-74
2023/11/24 00:41:51;;;;;;;2.80;2.17;;;;;;;-141.23;100.00;62281.09;5026085;28;20071;-74
2023/11/24 00:44:19;;;;;;;1.90;1.70;;;;;;;-141.23;100.00;62281.09;5076232;28;20051;-74
2023/11/24 00:46:45;;;;;;;3.20;2.27;;;;;;;-141.23;100.00;62281.09;5113338;27;20065;-75
2023/11/24 00:49:10;;;;;;;2.00;1.80;;;;;;;-141.23;100.00;62281.09;5086228;27;20038;-76
2023/11/24 00:51:36;;;;;;;1.63;1.53;;;;;;;-141.23;100.00;62281.09;5085690;27;20055;-76
2023/11/24 00:54:02;;;;;;;3.87;2.60;;;;;;;-141.23;100.00;62281.09;5102659;27;20043;-75
2023/11/24 00:56:29;;;;;;;1.30;1.20;;;;;;;-141.23;100.00;62281.09;5085936;27;20054;-76
2023/11/24 00:58:55;;;;;;;2.30;1.63;;;;;;;-141.23;100.00;62281.09;5085810;27;20229;-76
2023/11/24 01:01:21;;;;;;;1.37;1.27;;;;;;;-141.23;100.00;62281.09;5085491;27;20145;-77
2023/11/24 01:03:46;;;;;;;1.40;1.30;;;;;;;-141.23;100.00;62281.09;5119476;27;20050;-75
2023/11/24 01:06:13;;;;;;;2.33;1.67;;;;;;;-141.23;100.00;62281.09;5085664;27;20038;-76
2023/11/24 01:08:39;;;;;;;2.23;1.90;;;;;;;-141.23;100.00;62281.09;5099328;27;20478;-77
2023/11/24 01:11:06;;;;;;;2.90;1.83;;;;;;;-141.23;100.00;62281.09;5120039;27;20153;-76
2023/11/24 01:13:35;;;;;;;1.53;1.33;;;;;;;-141.23;100.00;62281.09;5120427;27;20047;-76
2023/11/24 01:16:02;;;;;;;1.60;1.50;;;;;;;-141.23;100.00;62281.09;5081898;27;20050;-76
2023/11/24 01:18:28;;;;;;;0.80;0.80;;;;;;;-141.23;100.00;62281.09;5065389;27;20173;-76
2023/11/24 01:20:54;;;;;;;1.07;1.03;;;;;;;-141.23;100.00;62281.09;5064750;27;20050;-76
2023/11/24 01:23:20;;;;;;;1.03;1.00;;;;;;;-141.23;100.00;62281.09;5064978;27;20057;-76
2023/11/24 01:25:48;;;;;;;1.33;1.23;;;;;;;-141.23;100.00;62281.09;5065388;27;20035;-76
2023/11/24 01:28:14;;;;;;;4.03;2.10;;;;;;;-141.23;100.00;62281.09;5064901;27;20103;-74
2023/11/24 01:30:40;;;;;;;1.60;1.40;;;;;;;-141.23;100.00;62281.09;5064964;27;20043;-74
2023/11/24 01:33:07;;;;;;;2.03;1.70;;;;;;;-141.23;100.00;62281.09;5064711;27;20043;-75
2023/11/24 01:35:33;;;;;;;1.63;1.53;;;;;;;-141.23;100.00;62281.09;5098661;27;20047;-76
2023/11/24 01:37:59;;;;;;;1.60;1.50;;;;;;;-141.23;100.00;62281.09;5098290;27;20128;-76
2023/11/24 01:40:26;;;;;;;2.07;1.80;;;;;;;-141.23;100.00;62281.09;5065032;27;20161;-77
2023/11/24 01:42:52;;;;;;;1.87;1.70;;;;;;;-141.23;100.00;62281.09;5097921;27;20449;-76
2023/11/24 01:45:18;;;;;;;2.57;2.07;;;;;;;-141.23;100.00;62281.09;5081424;27;20050;-74
2023/11/24 01:47:46;;;;;;;1.50;1.33;;;;;;;-141.23;100.00;62281.09;5081458;27;20055;-76
2023/11/24 01:50:14;;;;;;;1.83;1.50;;;;;;;-141.23;100.00;62281.09;5065102;27;20126;-76
2023/11/24 01:52:42;;;;;;;4.10;2.40;;;;;;;-141.23;100.00;62281.09;5065746;27;20482;-75
2023/11/24 01:55:12;;;;;;;5.13;2.90;;;;;;;-141.23;100.00;62281.09;5099194;27;20039;-75
2023/11/24 01:57:41;;;;;;;2.50;2.00;;;;;;;-141.23;100.00;62281.09;5093990;27;20039;-75
2023/11/24 02:00:12;;;;;;;2.53;2.00;;;;;;;-141.23;100.00;62281.09;5082243;27;20109;-75
2023/11/24 02:02:41;;;;;;;4.07;2.60;;;;;;;-141.23;100.00;62281.09;5132921;27;20042;-76
2023/11/24 02:05:08;;;;;;;2.17;1.90;;;;;;;-141.23;100.00;62281.09;5098731;27;20055;-76
2023/11/24 02:07:34;;;;;;;3.80;2.80;;;;;;;-141.23;100.00;62281.09;5115441;27;20104;-76
2023/11/24 02:10:00;;;;;;;5.20;3.57;;;;;;;-141.23;100.00;62281.09;5098596;27;20125;-76
2023/11/24 02:12:28;;;;;;;1.63;1.53;;;;;;;-141.23;100.00;62281.09;5115765;27;20103;-75
2023/11/24 02:14:54;;;;;;;4.53;2.63;;;;;;;-141.23;100.00;62281.09;5098622;27;20471;-74
2023/11/24 02:17:20;;;;;;;3.50;2.07;;;;;;;-141.23;100.00;62281.09;5073816;28;20109;-74
2023/11/24 02:19:46;;;;;;;4.73;2.70;;;;;;;-141.23;100.00;62281.09;5057444;28;20048;-75
2023/11/24 02:22:12;;;;;;;6.03;3.20;;;;;;;-141.23;100.00;62281.09;5040748;28;20507;-76
2023/11/24 02:24:38;;;;;;;4.13;3.00;;;;;;;-141.23;100.00;62281.09;5040966;28;20036;-75
2023/11/24 02:27:05;;;;;;;2.97;2.60;;;;;;;-141.23;100.00;62281.09;5033685;28;20060;-74
2023/11/24 02:29:32;;;;;;;4.43;2.77;;;;;;;-141.23;100.00;62281.09;5017773;28;20508;-75
2023/11/24 02:31:58;;;;;;;5.00;2.90;;;;;;;-141.23;100.00;62281.09;5033535;28;20057;-75
2023/11/24 02:34:24;;;;;;;5.80;3.53;;;;;;;-141.23;100.00;62281.09;5017022;28;20037;-74
2023/11/24 02:36:51;;;;;;;4.67;3.20;;;;;;;-141.23;100.00;62281.09;5033787;28;20123;-74
2023/11/24 02:39:17;;;;;;;4.53;2.97;;;;;;;-141.23;100.00;62281.09;5034055;28;20045;-76
2023/11/24 02:41:43;;;;;;;3.60;2.40;;;;;;;-141.23;100.00;62281.09;5017055;28;20033;-76
2023/11/24 02:44:09;;;;;;;3.53;2.50;;;;;;;-141.23;100.00;62281.09;5017655;28;20045;-75
2023/11/24 02:46:35;;;;;;;3.80;2.33;;;;;;;-141.23;100.00;62281.09;4979319;28;20050;-77
2023/11/24 02:49:01;;;;;;;5.07;3.47;;;;;;;-141.23;100.00;62281.09;4998257;28;20066;-76
2023/11/24 02:51:27;;;;;;;4.40;3.13;;;;;;;-141.23;100.00;62281.09;5022429;28;20048;-76
2023/11/24 02:53:53;;;;;;;5.57;3.17;;;;;;;-141.23;100.00;62281.09;5020941;28;20051;-76
2023/11/24 02:56:19;;;;;;;5.20;2.90;;;;;;;-141.23;100.00;62281.09;5004288;28;20056;-74
2023/11/24 02:58:45;;;;;;;6.33;3.70;;;;;;;-141.23;100.00;62281.09;5019989;28;20392;-74
2023/11/24 03:01:10;;;;;;;3.13;2.20;;;;;;;-141.23;100.00;62281.09;5020802;28;20447;-75
2023/11/24 03:03:37;;;;;;;2.23;2.03;;;;;;;-141.23;100.00;62281.09;5010545;28;20063;-75
2023/11/24 03:06:05;;;;;;;3.03;2.17;;;;;;;-141.23;100.00;62281.09;5044126;28;20056;-75
2023/11/24 03:08:32;;;;;;;5.20;2.60;;;;;;;-141.23;100.00;62281.09;5059353;28;20135;-76
2023/11/24 03:10:58;;;;;;;6.20;2.90;;;;;;;-141.23;100.00;62281.09;5039982;28;20071;-76
2023/11/24 03:13:24;;;;;;;4.17;2.23;;;;;;;-141.23;100.00;62281.09;5023540;28;20132;-75
2023/11/24 03:15:53;;;;;;;4.37;3.23;;;;;;;-141.23;100.00;62281.09;5056981;28;20567;-75
2023/11/24 03:18:19;;;;;;;3.90;2.70;;;;;;;-141.23;100.00;62281.09;5088746;27;20087;-75
2023/11/24 03:20:45;;;;;;;2.77;2.27;;;;;;;-141.23;100.00;62281.09;5102228;27;20672;-75
2023/11/24 03:23:11;;;;;;;7.83;3.33;;;;;;;-141.23;100.00;62281.09;5085217;27;20043;-75
2023/11/24 03:25:37;;;;;;;7.47;3.30;;;;;;;-141.23;100.00;62281.09;5085156;27;20374;-75
2023/11/24 03:28:03;;;;;;;3.70;2.47;;;;;;;-141.23;100.00;62281.09;5084626;27;20047;-75
2023/11/24 03:30:30;;;;;;;4.40;3.23;;;;;;;-141.23;100.00;62281.09;5110047;27;20488;-76
2023/11/24 03:32:56;;;;;;;4.23;2.80;;;;;;;-141.23;100.00;62281.09;5136310;27;20126;-76
2023/11/24 03:35:23;;;;;;;3.60;2.00;;;;;;;-141.23;100.00;62281.09;5105030;27;20125;-75
2023/11/24 03:37:49;;;;;;;3.73;2.40;;;;;;;-141.23;100.00;62281.09;5104254;27;20051;-76
2023/11/24 03:40:16;;;;;;;2.67;2.10;;;;;;;-141.23;100.00;62281.09;5105073;27;20035;-75
2023/11/24 03:42:42;;;;;;;4.13;3.00;;;;;;;-141.23;100.00;62281.09;5125659;27;20064;-76
2023/11/24 03:45:10;;;;;;;2.90;2.63;;;;;;;-141.23;100.00;62281.09;5118998;27;20064;-75
2023/11/24 03:47:36;;;;;;;3.77;2.70;;;;;;;-141.23;100.00;62281.09;5146788;27;20045;-75
2023/11/24 03:50:02;;;;;;;4.20;2.73;;;;;;;-141.23;100.00;62281.09;5115242;27;20038;-76
2023/11/24 03:52:33;;;;;;;2.75;2.22;;;;;;;-141.23;100.00;62281.09;5133063;27;20073;-76
2023/11/24 03:55:00;;;;;;;2.60;2.20;;;;;;;-141.23;100.00;62281.09;5131387;27;20154;-76
2023/11/24 03:57:27;;;;;;;2.97;2.50;;;;;;;-141.23;100.00;62281.09;5129562;27;20352;-70
2023/11/24 03:59:56;;;;;;;4.83;2.90;;;;;;;-141.23;100.00;62281.09;5131816;27;20039;-72
2023/11/24 04:02:22;;;;;;;5.87;3.07;;;;;;;-141.23;100.00;62281.09;5085226;27;20046;-70
2023/11/24 04:04:48;;;;;;;3.73;2.63;;;;;;;-141.23;100.00;62281.09;5096402;28;20499;-69
2023/11/24 04:07:15;;;;;;;5.27;2.70;;;;;;;-141.23;100.00;62281.09;5063179;28;20142;-68
2023/11/24 04:09:43;;;;;;;8.30;3.57;;;;;;;-141.23;100.00;62281.09;5045068;28;20151;-69
2023/11/24 04:12:10;;;;;;;3.30;2.57;;;;;;;-141.23;100.00;62281.09;5055010;28;20059;-67
2023/11/24 04:14:40;;;;;;;4.37;3.03;;;;;;;-141.23;100.00;62281.09;5032860;28;20125;-69
2023/11/24 04:17:09;;;;;;;7.40;4.10;;;;;;;-141.23;100.00;62281.09;5067640;28;20052;-70
2023/11/24 04:19:38;;;;;;;;;;;;;;;-141.23;100.00;62281.09;5010003;28;20759;-70
2023/11/24 04:22:04;;;;;;;6.33;3.73;;;;;;;-141.23;100.00;62281.09;4997044;28;20028;-72
2023/11/24 04:24:30;;;;;;;3.50;2.83;;;;;;;-141.23;100.00;62281.09;5007817;28;20049;-71
2023/11/24 04:26:57;;;;;;;3.57;2.73;;;;;;;-141.23;100.00;62281.09;4991011;28;20060;-76
2023/11/24 04:29:24;;;;;;;3.67;2.73;;;;;;;-141.23;100.00;62281.09;4951472;28;20042;-74
2023/11/24 04:31:50;;;;;;;5.67;3.47;;;;;;;-141.23;100.00;62281.09;4941061;28;20061;-74
2023/11/24 04:34:16;;;;;;;3.30;2.27;;;;;;;-141.23;100.00;62281.09;4941964;28;20050;-68
2023/11/24 04:36:44;;;;;;;2.87;2.30;;;;;;;-141.23;100.00;62281.09;4967286;28;20428;-70
2023/11/24 04:39:15;;;;;;;4.73;3.07;;;;;;;-141.23;100.00;62281.09;4986879;28;20050;-72
2023/11/24 04:41:43;;;;;;;3.40;3.00;;;;;;;-141.23;100.00;62281.09;4986088;28;20154;-73
2023/11/24 04:44:13;;;;;;;3.77;2.80;;;;;;;-141.23;100.00;62281.09;4967005;28;20050;-73
2023/11/24 04:46:39;;;;;;;4.18;2.42;;;;;;;-141.23;100.00;62281.09;4978308;28;20054;-71
2023/11/24 04:49:05;;;;;;;5.47;3.73;;;;;;;-141.23;100.00;62281.09;4976350;28;20046;-71
2023/11/24 04:51:31;;;;;;;2.93;2.00;;;;;;;-141.23;100.00;62281.09;4965998;28;20073;-73
2023/11/24 04:54:02;;;;;;;4.10;2.83;;;;;;;-141.23;100.00;62281.09;4981527;28;20101;-74
2023/11/24 04:56:31;;;;;;;10.60;5.17;;;;;;;-141.23;100.00;62281.09;4996350;28;20065;-72
2023/11/24 04:58:57;;;;;;;3.73;2.73;;;;;;;-141.23;100.00;62281.09;5025480;28;20050;-74
2023/11/24 05:01:23;;;;;;;7.63;4.03;;;;;;;-141.23;100.00;62281.09;4975548;28;20054;-73
2023/11/24 05:03:50;;;;;;;4.00;2.77;;;;;;;-141.23;100.00;62281.09;4991179;28;20083;-72
2023/11/24 05:06:17;;;;;;;6.27;4.03;;;;;;;-141.23;100.00;62281.09;4991850;28;20565;-73
2023/11/24 05:08:43;;;;;;;7.17;4.23;;;;;;;-141.23;100.00;62281.09;4997158;28;20051;-72
2023/11/24 05:11:15;;;;;;;5.10;2.97;;;;;;;-141.23;100.00;62281.09;5003902;28;20152;-72
2023/11/24 05:13:42;;;;;;;2.33;1.83;;;;;;;-141.23;100.00;62281.09;4994163;28;20055;-73
2023/11/24 05:16:19;;;;;;;8.20;4.30;;;;;;;-141.23;100.00;62281.09;4968270;28;20057;-73
2023/11/24 05:18:45;;;;;;;2.87;1.93;;;;;;;-141.23;100.00;62281.09;4952523;29;20051;-73
2023/11/24 05:21:12;;;;;;;6.33;3.27;;;;;;;-141.23;100.00;62281.09;4952620;29;20055;-73
2023/11/24 05:23:38;;;;;;;4.00;2.43;;;;;;;-141.23;100.00;62281.09;4952420;29;20130;-72
2023/11/24 05:26:05;;;;;;;4.43;2.70;;;;;;;-141.23;100.00;62281.09;4952724;29;20066;-73
2023/11/24 05:28:30;;;;;;;6.07;3.60;;;;;;;-141.23;100.00;62281.09;4905586;28;2470526;-74
2023/11/24 05:30:58;;;;;;;2.43;1.73;;;;;;;-141.23;100.00;62281.09;4992149;28;20120;-73
2023/11/24 05:33:26;;;;;;;6.07;3.80;;;;;;;-141.23;100.00;62281.09;4990019;28;20054;-71
2023/11/24 05:35:52;;;;;;;6.57;3.50;;;;;;;-141.23;100.00;62281.09;5014035;28;20051;-72
2023/11/24 05:38:18;;;;;;;3.73;2.00;;;;;;;-141.23;100.00;62281.09;4999104;28;20049;-73
2023/11/24 05:40:45;;;;;;;2.90;2.03;;;;;;;-141.23;100.00;62281.09;5071512;28;20063;-73
2023/11/24 05:43:11;;;;;;;5.27;3.37;;;;;;;-141.23;100.00;62281.09;5041989;28;20047;-74
2023/11/24 05:45:36;;;;;;;5.60;3.13;;;;;;;-141.23;100.00;62281.09;5074823;28;20056;-74
2023/11/24 05:48:04;;;;;;;1.27;1.17;;;;;;;-141.23;100.00;62281.09;5024204;28;20040;-73
2023/11/24 05:50:30;;;;;;;1.20;1.10;;;;;;;-141.23;100.00;62281.09;5040418;28;20051;-77
2023/11/24 05:52:56;;;;;;;7.97;3.97;;;;;;;-141.23;100.00;62281.09;5057777;28;20081;-72
2023/11/24 05:55:23;;;;;;;1.20;1.10;;;;;;;-141.23;100.00;62281.09;5057437;28;20052;-73
2023/11/24 05:57:50;;;;;;;2.00;1.53;;;;;;;-141.23;100.00;62281.09;5041087;28;20080;-73
2023/11/24 06:00:18;;;;;;;3.30;1.77;;;;;;;-141.23;100.00;62281.09;5037606;28;20061;-71
2023/11/24 06:02:46;;;;;;;2.13;1.83;;;;;;;-141.23;100.00;62281.09;5022989;28;20057;-74
2023/11/24 06:05:12;;;;;;;4.63;2.40;;;;;;;-141.23;100.00;62281.09;5017482;28;20529;-73
2023/11/24 06:07:43;;;;;;;2.43;1.60;;;;;;;-141.23;100.00;62281.09;5017470;28;20055;-76
2023/11/24 06:10:10;;;;;;;4.70;2.70;;;;;;;-141.23;100.00;62281.09;4942239;28;20054;-76
2023/11/24 06:12:36;;;;;;;2.93;1.77;;;;;;;-141.23;100.00;62281.09;4974976;28;20054;-74
2023/11/24 06:15:03;;;;;;;0.87;0.87;;;;;;;-141.23;100.00;62281.09;4958620;28;20054;-74
2023/11/24 06:17:32;;;;;;;1.10;1.00;;;;;;;-141.23;100.00;62281.09;4995795;28;20385;-76
2023/11/24 06:19:58;;;;;;;1.40;1.27;;;;;;;-141.23;100.00;62281.09;4983452;28;20053;-73
2023/11/24 06:22:23;;;;;;;2.30;1.60;;;;;;;-141.23;100.00;62281.09;5014531;28;20126;-74
2023/11/24 06:24:49;;;;;;;0.80;0.80;;;;;;;-141.23;100.00;62281.09;5013564;28;20136;-73
2023/11/24 06:27:15;;;;;;;0.60;0.60;;;;;;;-141.23;100.00;62281.09;4981116;28;20069;-75
2023/11/24 06:29:42;;;;;;;0.60;0.60;;;;;;;-141.23;100.00;62281.09;4997543;28;20071;-74
2023/11/24 06:32:11;;;;;;;12.30;4.73;;;;;;;-141.23;100.00;62281.09;4997265;28;20466;-74
2023/11/24 06:34:38;;;;;;;2.00;1.48;;;;;;;-141.23;100.00;62281.09;4994081;28;20061;-72
2023/11/24 06:37:04;;;;;;;0.90;0.90;;;;;;;-141.23;100.00;62281.09;4987434;28;20070;-73
2023/11/24 06:39:31;;;;;;;8.33;3.80;;;;;;;-141.23;100.00;62281.09;4999291;28;20477;-73
2023/11/24 06:42:00;;;;;;;1.17;1.07;;;;;;;-141.23;100.00;62281.09;5015406;28;20056;-73
2023/11/24 06:44:26;;;;;;;0.70;0.70;;;;;;;-141.23;100.00;62281.09;5034865;28;20045;-73
2023/11/24 06:46:52;;;;;;;0.60;0.60;;;;;;;-141.23;100.00;62281.09;5022556;28;20491;-73
2023/11/24 06:49:19;;;;;;;0.80;0.80;;;;;;;-141.23;100.00;62281.09;5054983;28;20052;-74
2023/11/24 06:51:48;;;;;;;0.60;0.60;;;;;;;-141.23;100.00;62281.09;5071539;28;20435;-74
2023/11/24 06:54:14;;;;;;;0.60;0.60;;;;;;;-141.23;100.00;62281.09;5055672;28;20048;-73
2023/11/24 06:56:40;;;;;;;0.70;0.70;;;;;;;-141.23;100.00;62281.09;5056736;28;20044;-72
2023/11/24 06:59:05;;;;;;;1.30;1.07;;;;;;;-141.23;100.00;62281.09;5056696;28;20126;-74
2023/11/24 07:01:32;;;;;;;0.90;0.87;;;;;;;-141.23;100.00;62281.09;5056958;28;20138;-74
2023/11/24 07:03:59;;;;;;;0.60;0.60;;;;;;;-141.23;100.00;62281.09;5073489;28;20048;-73
2023/11/24 07:06:25;;;;;;;0.70;0.70;;;;;;;-141.23;100.00;62281.09;5108540;28;20047;-74
2023/11/24 07:08:52;;;;;;;0.73;0.73;;;;;;;-141.23;100.00;62281.09;5081205;28;20035;-73
2023/11/24 07:11:19;;;;;;;0.70;0.70;;;;;;;-141.23;100.00;62281.09;5098319;28;20111;-74
2023/11/24 07:13:47;;;;;;;0.70;0.70;;;;;;;-141.23;100.00;62281.09;5081363;28;20039;-73
2023/11/24 07:16:13;;;;;;;0.60;0.60;;;;;;;-141.23;100.00;62281.09;5081208;28;20047;-73
2023/11/24 07:18:39;;;;;;;1.20;1.10;;;;;;;-141.23;100.00;62281.09;5097804;28;20514;-73
2023/11/24 07:21:05;;;;;;;0.70;0.70;;;;;;;-141.23;100.00;62281.09;5081194;28;20049;-73
2023/11/24 07:23:37;;;;;;;0.70;0.70;;;;;;;-141.23;100.00;62281.09;5115058;28;20090;-74
2023/11/24 07:26:07;;;;;;;0.80;0.80;;;;;;;-141.23;100.00;62281.09;5082123;28;20427;-74
2023/11/24 07:28:37;;;;;;;0.60;0.60;;;;;;;-141.23;100.00;62281.09;5081438;28;20051;-73
2023/11/24 07:31:04;;;;;;;1.60;1.40;;;;;;;-141.23;100.00;62281.09;5098286;28;20039;-73
2023/11/24 07:33:33;;;;;;;0.87;0.87;;;;;;;-141.23;100.00;62281.09;5081598;28;20110;-73
2023/11/24 07:35:59;;;;;;;1.03;0.97;;;;;;;-141.23;100.00;62281.09;5097511;28;20047;-73
2023/11/24 07:38:25;;;;;;;9.90;4.73;;;;;;;-141.23;100.00;62281.09;5081037;28;20042;-73
2023/11/24 07:40:51;;;;;;;1.00;1.00;;;;;;;-141.23;100.00;62281.09;5081142;28;20043;-73
2023/11/24 07:43:17;;;;;;;0.77;0.77;;;;;;;-141.23;100.00;62281.09;5097621;28;20043;-73
2023/11/24 07:45:50;;;;;;;2.17;1.58;;;;;;;-141.23;100.00;62281.09;5115035;28;20502;-72
2023/11/24 07:48:17;;;;;;;1.47;1.10;;;;;;;-141.23;100.00;62281.09;5097904;28;20039;-73
2023/11/24 07:50:44;;;;;;;0.97;0.90;;;;;;;-141.23;100.00;62281.09;5097480;28;20039;-73
2023/11/24 07:53:14;;;;;;;0.87;0.83;;;;;;;-141.23;100.00;62281.09;5097550;28;20038;-73
2023/11/24 07:55:41;;;;;;;0.70;0.70;;;;;;;-141.23;100.00;62281.09;5080505;28;20137;-73
2023/11/24 07:58:07;;;;;;;1.33;1.23;;;;;;;-141.23;100.00;62281.09;5097462;28;20035;-73
2023/11/24 08:00:34;;;;;;;6.37;2.87;;;;;;;-141.23;100.00;62281.09;5097747;28;20145;-74
2023/11/24 08:03:03;;;;;;;2.00;1.50;;;;;;;-141.23;100.00;62281.09;5114320;27;20053;-73
2023/11/24 08:05:29;;;;;;;4.33;2.63;;;;;;;-141.23;100.00;62281.09;5101228;27;20051;-74
2023/11/24 08:07:55;;;;;;;0.60;0.60;;;;;;;-141.23;100.00;62281.09;5084185;27;20103;-73
2023/11/24 08:10:21;;;;;;;1.10;0.90;;;;;;;-141.23;100.00;62281.09;5084018;27;20051;-73
2023/11/24 08:12:47;;;;;;;0.60;0.60;;;;;;;-141.23;100.00;62281.09;5100932;27;20057;-73
2023/11/24 08:15:13;;;;;;;11.33;4.20;;;;;;;-141.23;100.00;62281.09;5100901;27;20035;-73
2023/11/24 08:17:39;;;;;;;1.80;1.33;;;;;;;-141.23;100.00;62281.09;5101152;27;20104;-73
2023/11/24 08:20:11;;;;;;;1.57;1.33;;;;;;;-141.23;100.00;62281.09;5100966;27;20077;-75
2023/11/24 08:22:38;;;;;;;0.70;0.70;;;;;;;-141.23;100.00;62281.09;5118514;27;20359;-74
2023/11/24 08:25:06;;;;;;;0.80;0.80;;;;;;;-141.23;100.00;62281.09;5084099;27;20038;-74
2023/11/24 08:27:32;;;;;;;0.70;0.70;;;;;;;-141.23;100.00;62281.09;5101035;27;20054;-74
2023/11/24 08:29:59;;;;;;;0.60;0.60;;;;;;;-141.23;100.00;62281.09;5100729;27;20047;-74
2023/11/24 08:32:25;;;;;;;0.80;0.80;;;;;;;-141.23;100.00;62281.09;5100510;27;20043;-74
2023/11/24 08:34:50;;;;;;;3.60;2.30;;;;;;;-141.23;100.00;62281.09;5117779;27;20042;-74
2023/11/24 08:37:16;;;;;;;1.27;1.10;;;;;;;-141.23;100.00;62281.09;5100533;27;20390;-74
2023/11/24 08:39:43;;;;;;;1.20;1.00;;;;;;;-141.23;100.00;62281.09;5100321;27;20042;-75
2023/11/24 08:42:10;;;;;;;0.70;0.70;;;;;;;-141.23;100.00;62281.09;5101096;27;20138;-74
2023/11/24 08:44:36;;;;;;;0.67;0.67;;;;;;;-141.23;100.00;62281.09;5100697;27;20496;-75
2023/11/24 08:47:05;;;;;;;0.70;0.70;;;;;;;-141.23;100.00;62281.09;5099830;27;20039;-75
2023/11/24 08:49:32;;;;;;;0.60;0.60;;;;;;;-141.23;100.00;62281.09;5116819;27;20039;-74
2023/11/24 08:51:58;;;;;;;0.90;0.80;;;;;;;-141.23;100.00;62281.09;5083345;27;20055;-71
2023/11/24 08:54:24;;;;;;;4.63;2.83;;;;;;;-141.23;100.00;62281.09;5099904;27;20522;-73
2023/11/24 08:56:50;;;;;;;1.00;0.93;;;;;;;-141.23;100.00;62281.09;5099990;27;20129;-73
2023/11/24 08:59:16;;;;;;;0.47;0.47;;;;;;;-141.23;100.00;62281.09;5082818;27;20039;-70
2023/11/24 09:01:42;;;;;;;0.63;0.63;;;;;;;-141.23;100.00;62281.09;5082957;27;20046;-73
2023/11/24 09:04:10;;;;;;;0.60;0.60;;;;;;;-141.23;100.00;62281.09;5083230;27;20035;-74
2023/11/24 09:06:38;;;;;;;9.47;4.80;;;;;;;-141.23;100.00;62281.09;5117012;27;20074;-73
2023/11/24 09:09:07;;;;;;;0.77;0.77;;;;;;;-141.23;100.00;62281.09;5117189;27;20050;-72
2023/11/24 09:11:34;;;;;;;0.70;0.70;;;;;;;-141.23;100.00;62281.09;5100237;27;20099;-71
2023/11/24 09:14:05;;;;;;;0.73;0.73;;;;;;;-141.23;100.00;62281.09;5083028;27;20546;-72
2023/11/24 09:16:32;;;;;;;0.55;0.55;;;;;;;-141.23;100.00;62281.09;5132426;27;20075;-72
2023/11/24 09:18:58;;;;;;;0.57;0.57;;;;;;;-141.23;100.00;62281.09;5116580;27;20481;-71
2023/11/24 09:21:24;;;;;;;1.87;1.67;;;;;;;-141.23;100.00;62281.09;5133665;27;20053;-72
2023/11/24 09:23:51;;;;;;;0.70;0.70;;;;;;;-141.23;100.00;62281.09;5116536;27;20122;-71
2023/11/24 09:26:17;;;;;;;0.60;0.60;;;;;;;-141.23;100.00;62281.09;5099046;27;20207;-73
2023/11/24 09:28:44;;;;;;;3.43;2.20;;;;;;;-141.23;100.00;62281.09;5082522;27;20055;-76
2023/11/24 09:31:15;;;;;;;6.47;3.73;;;;;;;-141.23;100.00;62281.09;5104153;27;20046;-78
2023/11/24 09:33:41;;;;;;;1.43;1.27;;;;;;;-141.23;100.00;62281.09;5103423;27;20475;-74
2023/11/24 09:36:08;;;;;;;12.17;5.70;;;;;;;-141.23;100.00;62281.09;5082923;27;20039;-76
2023/11/24 09:38:35;;;;;;;1.70;1.30;;;;;;;-141.23;100.00;62281.09;5082485;27;20042;-75
2023/11/24 09:41:08;;;;;;;6.17;3.20;;;;;;;-141.23;100.00;62281.09;5099037;27;20047;-72
2023/11/24 09:43:38;;;;;;;0.70;0.70;;;;;;;-141.23;100.00;62281.09;5082058;27;20147;-72
2023/11/24 09:46:05;;;;;;;0.73;0.73;;;;;;;-141.23;100.00;62281.09;5115729;27;20505;-76
2023/11/24 09:48:33;;;;;;;8.27;3.83;;;;;;;-141.23;100.00;62281.09;5098997;27;20633;-74
2023/11/24 09:51:05;;;;;;;8.53;4.57;;;;;;;-141.23;100.00;62281.09;5098676;27;20043;-72
2023/11/24 09:53:33;;;;;;;0.70;0.70;;;;;;;-141.23;100.00;62281.09;5136033;27;20053;-78
2023/11/24 09:56:03;;;;;;;7.90;3.33;;;;;;;-141.23;100.00;62281.09;5115739;27;20043;-74
2023/11/24 09:58:30;;;;;;;1.23;1.13;;;;;;;-141.23;100.00;62281.09;5115825;27;20078;-72
2023/11/24 10:01:26;;;;;;;0.60;0.60;;;;;;;-141.23;100.00;62281.09;5098750;27;20050;-70
2023/11/24 10:03:55;;;;;;;9.60;4.47;;;;;;;-141.23;100.00;62281.09;5115774;27;20079;-69
2023/11/24 10:06:21;;;;;;;0.70;0.70;;;;;;;-141.23;100.00;62281.09;5082043;27;20463;-70
2023/11/24 10:08:47;;;;;;;0.97;0.93;;;;;;;-141.23;100.00;62281.09;5081523;27;20039;-71
2023/11/24 10:11:27;;;;;;;0.73;0.73;;;;;;;-141.23;100.00;62281.09;5098616;27;20038;-70
2023/11/24 10:13:57;;;;;;;9.77;4.40;;;;;;;-141.23;100.00;62281.09;5100439;27;20043;-69
2023/11/24 10:16:23;;;;;;;0.70;0.70;;;;;;;-141.23;100.00;62281.09;5098318;27;20049;-75
2023/11/24 10:18:50;;;;;;;0.60;0.60;;;;;;;-141.23;100.00;62281.09;5098458;27;20070;-74
2023/11/24 10:21:16;;;;;;;0.70;0.70;;;;;;;-141.23;100.00;62281.09;5098562;27;20042;-73
2023/11/24 10:23:44;;;;;;;2.43;1.63;;;;;;;-141.23;100.00;62281.09;5098548;27;20053;-74
2023/11/24 10:26:15;;;;;;;0.60;0.60;;;;;;;-141.23;100.00;62281.09;5095934;27;20043;-74
2023/11/24 10:28:45;;;;;;;;;;;;;;;-141.23;100.00;62281.09;5102336;27;20507;-74
2023/11/24 10:31:15;;;;;;;2.23;1.70;;;;;;;-141.23;100.00;62281.09;5119058;27;19973;-73
2023/11/24 10:33:43;;;;;;;2.43;0.70;;;;;;;-141.23;100.00;62281.09;5029988;28;20053;-71
2023/11/24 10:36:11;;;;;;;1.60;1.40;;;;;;;-141.23;100.00;62281.09;4981015;28;20118;-71
2023/11/24 10:38:41;;;;;;;0.80;0.80;;;;;;;-141.23;100.00;62281.09;4981343;28;20084;-69
2023/11/24 10:41:18;;;;;;;0.65;0.65;;;;;;;-141.23;100.00;62281.09;5013602;28;20053;-72
2023/11/24 10:43:48;;;;;;;0.50;0.50;;;;;;;-141.23;100.00;62281.09;4982392;28;20080;-69
2023/11/24 10:46:27;;;;;;;1.47;1.23;;;;;;;-141.23;100.00;62281.09;4974733;28;20473;-70
2023/11/24 10:49:21;;;;;;;0.50;0.50;;;;;;;-141.23;100.00;62281.09;4957959;28;20050;-71
2023/11/24 10:52:00;;;;;;;0.53;0.53;;;;;;;-141.23;100.00;62281.09;4949668;28;20042;-71
2023/11/24 10:54:51;;;;;;;0.50;0.50;;;;;;;-141.23;100.00;62281.09;4935341;29;20058;-70
2023/11/24 10:57:22;;;;;;;0.60;0.60;;;;;;;-141.23;100.00;62281.09;4930853;29;20052;-72
2023/11/24 10:59:49;;;;;;;0.80;0.80;;;;;;;-141.23;100.00;62281.09;4931630;29;20115;-70
2023/11/24 11:02:15;;;;;;;0.60;0.60;;;;;;;-141.23;100.00;62281.09;4931315;29;20160;-71
2023/11/24 11:04:55;;;;;;;0.67;0.67;;;;;;;-141.23;100.00;62281.09;4950207;28;20046;-71
2023/11/24 11:07:32;;;;;;;0.70;0.70;;;;;;;-141.23;100.00;62281.09;4969870;28;20078;-70
2023/11/24 11:10:02;;;;;;;0.73;0.73;;;;;;;-141.23;100.00;62281.09;4971852;28;20058;-71